Etusivu
METAR-TAF:

METAR-TAF

Lentoasemat :

Billings, Montana, Yhdysvallat

Leveyspiiri: 45-48-25N, Pituuspiiri: 108-32-32W, korkeus merenpinnasta: 1112 m

Tämänhetkinen sää

Tämä raportti tehtiin 17 minuuttia sitten, kello 08.53 UTC
Tuuli 4 kn pohjoisesta/koillisesta
Lämpötila 19°C
Kosteus 37%
Ilmanpaine 1017 hPa
Näkyvyys: 16.1 km
selkeää

METAR: KBIL 140853Z 02004KT 10SM CLR 19/04 A3002 RMK AO2 SLP128 T01890039 55003

Aika: 03:10 (09:10 UTC)

Sääennuste

Tämä raportti tehtiin 3 tuntia ja 41 minuuttia sitten, kello 05.29 UTC
Ennuste voimassa 14. päivästä klo 06 UTC - 15. päivään klo 06 UTC
Tuuli 6 kn eri suunnista
Näkyvyys: 10 km
Muutamia pilviä 15000 ft:n korkeudessa
From 14. päivästä klo 1700 UTC
Tuuli 13 kn idästä
Näkyvyys: 10 km
Muutamia pilviä 12000 ft:n korkeudessa

TAF: KBIL 140529Z 1406/1506 VRB06KT P6SM FEW150 FM141700 10013KT P6SM FEW120

Säähavainnot ja -ennusteet yli 4000 lentoasemalta (METAR- ja TAF-raportit).

Käytössä olevat sääasemat on merkitty karttaan keltaisilla ja punaisilla pisteillä.

Aseta hiiri pisteen päälle nähdäksesi sääaseman nimen.

Klikkaa sitten nähdäksesi säähavainnot ja -ennusteet.

Kartan vaihtaminen: klikkaa mustalla rastilla varustettuja vihreitä pisteitä, niin voit zoomata sisään; viivalla varustettua vihreää pistettä, niin voit zoomata ulos tai vihreitä nuolia, niin pääset viereisille kartoille.


METAR-TAF: